sensor_id;sensor_type;location;lat;lon;timestamp;P1;durP1;ratioP1;P2;durP2;ratioP2
41799;SDS011;27468;47.460;19.034;2023-03-01T00:01:05;12.60;;;7.70;;
41799;SDS011;27468;47.460;19.034;2023-03-01T00:03:32;13.00;;;7.07;;
41799;SDS011;27468;47.460;19.034;2023-03-01T00:05:58;12.52;;;7.80;;
41799;SDS011;27468;47.460;19.034;2023-03-01T00:08:24;13.60;;;7.65;;
41799;SDS011;27468;47.460;19.034;2023-03-01T00:10:59;12.35;;;7.20;;
41799;SDS011;27468;47.460;19.034;2023-03-01T00:13:36;13.93;;;7.40;;
41799;SDS011;27468;47.460;19.034;2023-03-01T00:16:03;14.35;;;7.95;;
41799;SDS011;27468;47.460;19.034;2023-03-01T00:18:32;14.73;;;7.97;;
41799;SDS011;27468;47.460;19.034;2023-03-01T00:20:58;14.50;;;8.60;;
41799;SDS011;27468;47.460;19.034;2023-03-01T00:23:24;15.05;;;8.55;;
41799;SDS011;27468;47.460;19.034;2023-03-01T00:25:49;14.50;;;8.35;;
41799;SDS011;27468;47.460;19.034;2023-03-01T00:28:15;14.60;;;8.48;;
41799;SDS011;27468;47.460;19.034;2023-03-01T00:30:41;13.23;;;7.80;;
41799;SDS011;27468;47.460;19.034;2023-03-01T00:33:07;13.90;;;8.38;;
41799;SDS011;27468;47.460;19.034;2023-03-01T00:35:32;14.50;;;8.52;;
41799;SDS011;27468;47.460;19.034;2023-03-01T00:37:58;15.10;;;8.85;;
41799;SDS011;27468;47.460;19.034;2023-03-01T00:40:24;14.60;;;8.27;;
41799;SDS011;27468;47.460;19.034;2023-03-01T00:42:50;14.88;;;8.88;;
41799;SDS011;27468;47.460;19.034;2023-03-01T00:45:16;16.38;;;9.27;;
41799;SDS011;27468;47.460;19.034;2023-03-01T00:47:42;14.77;;;9.18;;
41799;SDS011;27468;47.460;19.034;2023-03-01T00:50:07;15.95;;;9.18;;
41799;SDS011;27468;47.460;19.034;2023-03-01T00:52:33;17.48;;;9.80;;
41799;SDS011;27468;47.460;19.034;2023-03-01T00:54:59;16.70;;;8.60;;
41799;SDS011;27468;47.460;19.034;2023-03-01T00:57:24;16.42;;;8.82;;
41799;SDS011;27468;47.460;19.034;2023-03-01T00:59:50;15.05;;;9.02;;
41799;SDS011;27468;47.460;19.034;2023-03-01T01:02:17;15.48;;;8.60;;
41799;SDS011;27468;47.460;19.034;2023-03-01T01:04:44;15.70;;;8.82;;
41799;SDS011;27468;47.460;19.034;2023-03-01T01:07:10;13.65;;;8.27;;
41799;SDS011;27468;47.460;19.034;2023-03-01T01:09:35;14.93;;;8.80;;
41799;SDS011;27468;47.460;19.034;2023-03-01T01:12:01;14.52;;;8.00;;
41799;SDS011;27468;47.460;19.034;2023-03-01T01:14:27;13.48;;;8.82;;
41799;SDS011;27468;47.460;19.034;2023-03-01T01:16:53;13.90;;;8.10;;
41799;SDS011;27468;47.460;19.034;2023-03-01T01:19:18;14.80;;;8.32;;
41799;SDS011;27468;47.460;19.034;2023-03-01T01:21:44;13.20;;;7.55;;
41799;SDS011;27468;47.460;19.034;2023-03-01T01:24:10;13.73;;;7.80;;
41799;SDS011;27468;47.460;19.034;2023-03-01T01:26:36;12.07;;;7.60;;
41799;SDS011;27468;47.460;19.034;2023-03-01T01:29:02;15.63;;;8.32;;
41799;SDS011;27468;47.460;19.034;2023-03-01T01:31:30;14.50;;;8.25;;
41799;SDS011;27468;47.460;19.034;2023-03-01T01:33:57;14.25;;;8.02;;
41799;SDS011;27468;47.460;19.034;2023-03-01T01:36:23;15.27;;;8.20;;
41799;SDS011;27468;47.460;19.034;2023-03-01T01:38:49;14.75;;;8.07;;
41799;SDS011;27468;47.460;19.034;2023-03-01T01:41:15;12.68;;;8.35;;
41799;SDS011;27468;47.460;19.034;2023-03-01T01:43:44;12.38;;;7.63;;
41799;SDS011;27468;47.460;19.034;2023-03-01T01:46:30;12.45;;;7.15;;
41799;SDS011;27468;47.460;19.034;2023-03-01T01:49:02;12.75;;;7.57;;
41799;SDS011;27468;47.460;19.034;2023-03-01T01:51:31;13.75;;;7.47;;
41799;SDS011;27468;47.460;19.034;2023-03-01T01:54:19;14.35;;;7.50;;
41799;SDS011;27468;47.460;19.034;2023-03-01T01:56:56;11.88;;;6.90;;
41799;SDS011;27468;47.460;19.034;2023-03-01T01:59:26;11.18;;;6.65;;
41799;SDS011;27468;47.460;19.034;2023-03-01T02:01:54;12.85;;;6.97;;
41799;SDS011;27468;47.460;19.034;2023-03-01T02:04:20;13.75;;;7.72;;
41799;SDS011;27468;47.460;19.034;2023-03-01T02:06:48;14.40;;;8.23;;
41799;SDS011;27468;47.460;19.034;2023-03-01T02:09:20;15.25;;;7.35;;
41799;SDS011;27468;47.460;19.034;2023-03-01T02:11:48;12.63;;;7.05;;
41799;SDS011;27468;47.460;19.034;2023-03-01T02:14:15;14.73;;;7.70;;
41799;SDS011;27468;47.460;19.034;2023-03-01T02:16:41;13.52;;;8.18;;
41799;SDS011;27468;47.460;19.034;2023-03-01T02:19:07;13.73;;;7.25;;
41799;SDS011;27468;47.460;19.034;2023-03-01T02:21:43;15.03;;;7.63;;
41799;SDS011;27468;47.460;19.034;2023-03-01T02:27:38;11.43;;;6.78;;
41799;SDS011;27468;47.460;19.034;2023-03-01T02:30:19;12.20;;;7.05;;
41799;SDS011;27468;47.460;19.034;2023-03-01T02:32:46;13.55;;;7.20;;
41799;SDS011;27468;47.460;19.034;2023-03-01T02:35:14;12.68;;;7.63;;
41799;SDS011;27468;47.460;19.034;2023-03-01T02:37:41;14.73;;;7.57;;
41799;SDS011;27468;47.460;19.034;2023-03-01T02:40:09;13.10;;;7.55;;
41799;SDS011;27468;47.460;19.034;2023-03-01T02:42:45;11.88;;;7.07;;
41799;SDS011;27468;47.460;19.034;2023-03-01T02:45:18;13.35;;;7.40;;
41799;SDS011;27468;47.460;19.034;2023-03-01T02:47:44;14.52;;;7.78;;
41799;SDS011;27468;47.460;19.034;2023-03-01T02:53:11;14.45;;;7.72;;
41799;SDS011;27468;47.460;19.034;2023-03-01T02:55:40;15.57;;;8.00;;
41799;SDS011;27468;47.460;19.034;2023-03-01T02:58:06;14.65;;;8.20;;
41799;SDS011;27468;47.460;19.034;2023-03-01T03:00:36;13.18;;;7.95;;
41799;SDS011;27468;47.460;19.034;2023-03-01T03:05:31;13.93;;;7.55;;
41799;SDS011;27468;47.460;19.034;2023-03-01T03:07:58;13.38;;;8.48;;
41799;SDS011;27468;47.460;19.034;2023-03-01T03:10:28;13.27;;;7.45;;
41799;SDS011;27468;47.460;19.034;2023-03-01T03:13:01;14.75;;;7.88;;
41799;SDS011;27468;47.460;19.034;2023-03-01T03:15:28;14.83;;;8.10;;
41799;SDS011;27468;47.460;19.034;2023-03-01T03:17:54;12.82;;;7.13;;
41799;SDS011;27468;47.460;19.034;2023-03-01T03:20:21;13.82;;;7.78;;
41799;SDS011;27468;47.460;19.034;2023-03-01T03:22:51;13.93;;;7.45;;
41799;SDS011;27468;47.460;19.034;2023-03-01T03:25:19;11.57;;;7.03;;
41799;SDS011;27468;47.460;19.034;2023-03-01T03:27:46;15.05;;;7.72;;
41799;SDS011;27468;47.460;19.034;2023-03-01T03:30:15;14.90;;;7.70;;
41799;SDS011;27468;47.460;19.034;2023-03-01T03:32:43;13.73;;;7.60;;
41799;SDS011;27468;47.460;19.034;2023-03-01T03:35:18;15.32;;;7.70;;
41799;SDS011;27468;47.460;19.034;2023-03-01T03:37:49;15.40;;;8.50;;
41799;SDS011;27468;47.460;19.034;2023-03-01T03:40:32;17.13;;;9.00;;
41799;SDS011;27468;47.460;19.034;2023-03-01T03:43:02;15.23;;;7.97;;
41799;SDS011;27468;47.460;19.034;2023-03-01T03:45:31;14.60;;;7.60;;
41799;SDS011;27468;47.460;19.034;2023-03-01T03:47:58;14.13;;;7.28;;
41799;SDS011;27468;47.460;19.034;2023-03-01T03:50:25;14.65;;;7.53;;
41799;SDS011;27468;47.460;19.034;2023-03-01T03:52:51;14.77;;;8.15;;
41799;SDS011;27468;47.460;19.034;2023-03-01T03:55:16;13.48;;;7.35;;
41799;SDS011;27468;47.460;19.034;2023-03-01T03:57:44;12.90;;;6.95;;
41799;SDS011;27468;47.460;19.034;2023-03-01T04:00:16;12.90;;;7.45;;
41799;SDS011;27468;47.460;19.034;2023-03-01T04:02:44;14.35;;;7.25;;
41799;SDS011;27468;47.460;19.034;2023-03-01T04:05:11;14.88;;;7.82;;
41799;SDS011;27468;47.460;19.034;2023-03-01T04:07:39;17.33;;;8.32;;
41799;SDS011;27468;47.460;19.034;2023-03-01T04:10:06;12.93;;;8.05;;
41799;SDS011;27468;47.460;19.034;2023-03-01T04:12:37;14.00;;;8.23;;
41799;SDS011;27468;47.460;19.034;2023-03-01T04:15:03;13.15;;;7.60;;
41799;SDS011;27468;47.460;19.034;2023-03-01T04:17:38;14.15;;;8.48;;
41799;SDS011;27468;47.460;19.034;2023-03-01T04:20:16;16.33;;;9.00;;
41799;SDS011;27468;47.460;19.034;2023-03-01T04:22:49;16.00;;;8.38;;
41799;SDS011;27468;47.460;19.034;2023-03-01T04:25:15;15.23;;;8.43;;
41799;SDS011;27468;47.460;19.034;2023-03-01T04:27:41;15.90;;;8.75;;
41799;SDS011;27468;47.460;19.034;2023-03-01T04:30:07;15.57;;;9.05;;
41799;SDS011;27468;47.460;19.034;2023-03-01T04:32:33;14.25;;;8.30;;
41799;SDS011;27468;47.460;19.034;2023-03-01T04:34:59;15.55;;;8.60;;
41799;SDS011;27468;47.460;19.034;2023-03-01T04:37:25;15.15;;;8.15;;
41799;SDS011;27468;47.460;19.034;2023-03-01T04:39:51;17.42;;;8.48;;
41799;SDS011;27468;47.460;19.034;2023-03-01T04:42:17;18.23;;;8.07;;
41799;SDS011;27468;47.460;19.034;2023-03-01T04:44:43;15.40;;;7.93;;
41799;SDS011;27468;47.460;19.034;2023-03-01T04:47:09;13.50;;;7.50;;
41799;SDS011;27468;47.460;19.034;2023-03-01T04:49:34;15.60;;;8.25;;
41799;SDS011;27468;47.460;19.034;2023-03-01T04:51:59;15.65;;;7.78;;
41799;SDS011;27468;47.460;19.034;2023-03-01T04:54:36;14.82;;;8.45;;
41799;SDS011;27468;47.460;19.034;2023-03-01T04:57:02;15.15;;;7.75;;
41799;SDS011;27468;47.460;19.034;2023-03-01T04:59:28;14.25;;;7.75;;
41799;SDS011;27468;47.460;19.034;2023-03-01T05:01:54;13.88;;;7.80;;
41799;SDS011;27468;47.460;19.034;2023-03-01T05:04:21;14.63;;;8.10;;
41799;SDS011;27468;47.460;19.034;2023-03-01T05:06:47;12.52;;;7.57;;
41799;SDS011;27468;47.460;19.034;2023-03-01T05:09:12;14.27;;;7.75;;
41799;SDS011;27468;47.460;19.034;2023-03-01T05:11:38;13.75;;;8.05;;
41799;SDS011;27468;47.460;19.034;2023-03-01T05:14:04;13.15;;;7.85;;
41799;SDS011;27468;47.460;19.034;2023-03-01T05:16:31;14.23;;;7.45;;
41799;SDS011;27468;47.460;19.034;2023-03-01T05:18:57;12.60;;;7.22;;
41799;SDS011;27468;47.460;19.034;2023-03-01T05:21:23;15.35;;;8.13;;
41799;SDS011;27468;47.460;19.034;2023-03-01T05:23:48;14.00;;;7.80;;
41799;SDS011;27468;47.460;19.034;2023-03-01T05:26:14;12.90;;;7.43;;
41799;SDS011;27468;47.460;19.034;2023-03-01T05:28:42;13.20;;;7.65;;
41799;SDS011;27468;47.460;19.034;2023-03-01T05:31:08;11.55;;;7.40;;
41799;SDS011;27468;47.460;19.034;2023-03-01T05:33:35;13.75;;;7.18;;
41799;SDS011;27468;47.460;19.034;2023-03-01T05:36:05;13.38;;;7.88;;
41799;SDS011;27468;47.460;19.034;2023-03-01T05:38:32;12.00;;;6.95;;
41799;SDS011;27468;47.460;19.034;2023-03-01T05:40:58;13.57;;;8.00;;
41799;SDS011;27468;47.460;19.034;2023-03-01T05:43:23;13.15;;;6.82;;
41799;SDS011;27468;47.460;19.034;2023-03-01T05:45:48;14.68;;;7.78;;
41799;SDS011;27468;47.460;19.034;2023-03-01T05:48:14;13.43;;;7.25;;
41799;SDS011;27468;47.460;19.034;2023-03-01T05:50:40;12.18;;;7.32;;
41799;SDS011;27468;47.460;19.034;2023-03-01T05:55:37;12.93;;;7.47;;
41799;SDS011;27468;47.460;19.034;2023-03-01T05:58:04;11.18;;;6.80;;
41799;SDS011;27468;47.460;19.034;2023-03-01T06:00:32;11.43;;;6.80;;
41799;SDS011;27468;47.460;19.034;2023-03-01T06:02:58;12.32;;;7.28;;
41799;SDS011;27468;47.460;19.034;2023-03-01T06:05:26;12.05;;;6.78;;
41799;SDS011;27468;47.460;19.034;2023-03-01T06:07:52;11.70;;;6.75;;
41799;SDS011;27468;47.460;19.034;2023-03-01T06:10:19;12.60;;;6.85;;
41799;SDS011;27468;47.460;19.034;2023-03-01T06:12:46;13.27;;;7.72;;
41799;SDS011;27468;47.460;19.034;2023-03-01T06:15:13;13.68;;;7.38;;
41799;SDS011;27468;47.460;19.034;2023-03-01T06:17:40;11.05;;;6.50;;
41799;SDS011;27468;47.460;19.034;2023-03-01T06:20:08;13.35;;;6.40;;
41799;SDS011;27468;47.460;19.034;2023-03-01T06:22:38;11.80;;;7.45;;
41799;SDS011;27468;47.460;19.034;2023-03-01T06:25:04;13.45;;;6.85;;
41799;SDS011;27468;47.460;19.034;2023-03-01T06:27:30;12.90;;;6.82;;
41799;SDS011;27468;47.460;19.034;2023-03-01T06:29:55;13.23;;;7.20;;
41799;SDS011;27468;47.460;19.034;2023-03-01T06:32:21;16.73;;;8.02;;
41799;SDS011;27468;47.460;19.034;2023-03-01T06:34:46;12.65;;;8.10;;
41799;SDS011;27468;47.460;19.034;2023-03-01T06:37:11;14.35;;;8.35;;
41799;SDS011;27468;47.460;19.034;2023-03-01T06:39:37;15.98;;;7.95;;
41799;SDS011;27468;47.460;19.034;2023-03-01T06:42:02;14.82;;;8.38;;
41799;SDS011;27468;47.460;19.034;2023-03-01T06:44:28;13.35;;;8.27;;
41799;SDS011;27468;47.460;19.034;2023-03-01T06:46:53;16.25;;;8.25;;
41799;SDS011;27468;47.460;19.034;2023-03-01T06:49:19;14.63;;;7.82;;
41799;SDS011;27468;47.460;19.034;2023-03-01T06:51:45;13.38;;;7.68;;
41799;SDS011;27468;47.460;19.034;2023-03-01T06:54:11;16.17;;;8.25;;
41799;SDS011;27468;47.460;19.034;2023-03-01T06:56:37;15.82;;;8.80;;
41799;SDS011;27468;47.460;19.034;2023-03-01T06:59:02;15.23;;;8.55;;
41799;SDS011;27468;47.460;19.034;2023-03-01T07:01:29;15.82;;;8.18;;
41799;SDS011;27468;47.460;19.034;2023-03-01T07:03:54;16.90;;;9.70;;
41799;SDS011;27468;47.460;19.034;2023-03-01T07:06:20;16.00;;;9.30;;
41799;SDS011;27468;47.460;19.034;2023-03-01T07:08:46;15.20;;;8.07;;
41799;SDS011;27468;47.460;19.034;2023-03-01T07:11:12;13.07;;;7.50;;
41799;SDS011;27468;47.460;19.034;2023-03-01T07:13:38;13.13;;;8.23;;
41799;SDS011;27468;47.460;19.034;2023-03-01T07:16:03;13.95;;;7.75;;
41799;SDS011;27468;47.460;19.034;2023-03-01T07:18:29;12.40;;;7.25;;
41799;SDS011;27468;47.460;19.034;2023-03-01T07:20:54;13.05;;;8.25;;
41799;SDS011;27468;47.460;19.034;2023-03-01T07:23:20;12.93;;;8.10;;
41799;SDS011;27468;47.460;19.034;2023-03-01T07:25:50;14.25;;;8.80;;
41799;SDS011;27468;47.460;19.034;2023-03-01T07:28:17;15.10;;;8.32;;
41799;SDS011;27468;47.460;19.034;2023-03-01T07:30:43;14.75;;;8.73;;
41799;SDS011;27468;47.460;19.034;2023-03-01T07:33:09;15.43;;;7.72;;
41799;SDS011;27468;47.460;19.034;2023-03-01T07:35:35;15.05;;;8.25;;
41799;SDS011;27468;47.460;19.034;2023-03-01T07:38:00;14.32;;;8.25;;
41799;SDS011;27468;47.460;19.034;2023-03-01T07:40:25;13.80;;;7.82;;
41799;SDS011;27468;47.460;19.034;2023-03-01T07:42:54;13.93;;;8.00;;
41799;SDS011;27468;47.460;19.034;2023-03-01T07:47:52;14.18;;;8.10;;
41799;SDS011;27468;47.460;19.034;2023-03-01T07:50:18;14.98;;;8.38;;
41799;SDS011;27468;47.460;19.034;2023-03-01T07:52:47;15.73;;;8.88;;
41799;SDS011;27468;47.460;19.034;2023-03-01T07:55:14;13.18;;;7.50;;
41799;SDS011;27468;47.460;19.034;2023-03-01T07:57:40;16.98;;;8.15;;
41799;SDS011;27468;47.460;19.034;2023-03-01T08:00:06;11.93;;;7.65;;
41799;SDS011;27468;47.460;19.034;2023-03-01T08:02:32;13.18;;;7.20;;
41799;SDS011;27468;47.460;19.034;2023-03-01T08:04:58;11.95;;;6.90;;
41799;SDS011;27468;47.460;19.034;2023-03-01T08:07:24;11.60;;;6.63;;
41799;SDS011;27468;47.460;19.034;2023-03-01T08:09:49;11.90;;;7.15;;
41799;SDS011;27468;47.460;19.034;2023-03-01T08:12:15;12.85;;;7.68;;
41799;SDS011;27468;47.460;19.034;2023-03-01T08:14:41;13.30;;;7.57;;
41799;SDS011;27468;47.460;19.034;2023-03-01T08:17:07;14.63;;;7.50;;
41799;SDS011;27468;47.460;19.034;2023-03-01T08:19:33;17.27;;;8.77;;
41799;SDS011;27468;47.460;19.034;2023-03-01T08:21:59;12.80;;;8.73;;
41799;SDS011;27468;47.460;19.034;2023-03-01T08:24:26;15.65;;;9.02;;
41799;SDS011;27468;47.460;19.034;2023-03-01T08:26:52;14.55;;;8.98;;
41799;SDS011;27468;47.460;19.034;2023-03-01T08:29:17;16.30;;;8.60;;
41799;SDS011;27468;47.460;19.034;2023-03-01T08:31:43;13.55;;;7.90;;
41799;SDS011;27468;47.460;19.034;2023-03-01T08:34:10;12.95;;;7.97;;
41799;SDS011;27468;47.460;19.034;2023-03-01T08:36:41;13.30;;;8.18;;
41799;SDS011;27468;47.460;19.034;2023-03-01T08:39:09;12.45;;;8.35;;
41799;SDS011;27468;47.460;19.034;2023-03-01T08:41:36;13.00;;;7.65;;
41799;SDS011;27468;47.460;19.034;2023-03-01T08:44:03;12.65;;;7.72;;
41799;SDS011;27468;47.460;19.034;2023-03-01T08:46:30;13.25;;;8.48;;
41799;SDS011;27468;47.460;19.034;2023-03-01T08:48:57;14.40;;;8.38;;
41799;SDS011;27468;47.460;19.034;2023-03-01T08:51:23;13.45;;;8.85;;
41799;SDS011;27468;47.460;19.034;2023-03-01T08:53:50;13.30;;;8.63;;
41799;SDS011;27468;47.460;19.034;2023-03-01T08:56:16;11.95;;;7.68;;
41799;SDS011;27468;47.460;19.034;2023-03-01T08:58:46;13.02;;;8.40;;
41799;SDS011;27468;47.460;19.034;2023-03-01T09:01:14;13.68;;;8.00;;
41799;SDS011;27468;47.460;19.034;2023-03-01T09:03:41;13.63;;;8.90;;
41799;SDS011;27468;47.460;19.034;2023-03-01T09:06:07;14.15;;;9.30;;
41799;SDS011;27468;47.460;19.034;2023-03-01T09:08:34;14.80;;;8.88;;
41799;SDS011;27468;47.460;19.034;2023-03-01T09:11:04;13.98;;;8.55;;
41799;SDS011;27468;47.460;19.034;2023-03-01T09:13:31;14.25;;;9.13;;
41799;SDS011;27468;47.460;19.034;2023-03-01T09:15:58;15.05;;;9.40;;
41799;SDS011;27468;47.460;19.034;2023-03-01T09:18:25;16.17;;;9.63;;
41799;SDS011;27468;47.460;19.034;2023-03-01T09:20:50;15.70;;;8.85;;
41799;SDS011;27468;47.460;19.034;2023-03-01T09:23:16;13.65;;;8.45;;
41799;SDS011;27468;47.460;19.034;2023-03-01T09:25:41;13.77;;;8.98;;
41799;SDS011;27468;47.460;19.034;2023-03-01T09:28:07;11.90;;;7.85;;
41799;SDS011;27468;47.460;19.034;2023-03-01T09:30:32;15.65;;;9.52;;
41799;SDS011;27468;47.460;19.034;2023-03-01T09:32:58;14.20;;;8.88;;
41799;SDS011;27468;47.460;19.034;2023-03-01T09:35:23;16.38;;;10.05;;
41799;SDS011;27468;47.460;19.034;2023-03-01T09:37:49;16.00;;;9.52;;
41799;SDS011;27468;47.460;19.034;2023-03-01T09:40:24;12.82;;;8.07;;
41799;SDS011;27468;47.460;19.034;2023-03-01T09:43:00;14.55;;;8.43;;
41799;SDS011;27468;47.460;19.034;2023-03-01T09:45:58;15.40;;;8.95;;
41799;SDS011;27468;47.460;19.034;2023-03-01T09:48:27;15.65;;;8.20;;
41799;SDS011;27468;47.460;19.034;2023-03-01T09:51:02;13.88;;;8.18;;
41799;SDS011;27468;47.460;19.034;2023-03-01T09:53:33;15.50;;;8.77;;
41799;SDS011;27468;47.460;19.034;2023-03-01T09:58:54;17.08;;;10.02;;
41799;SDS011;27468;47.460;19.034;2023-03-01T10:04:05;14.37;;;8.60;;
41799;SDS011;27468;47.460;19.034;2023-03-01T10:09:34;14.48;;;9.18;;
41799;SDS011;27468;47.460;19.034;2023-03-01T10:12:02;15.40;;;9.05;;
41799;SDS011;27468;47.460;19.034;2023-03-01T10:14:35;14.48;;;9.30;;
41799;SDS011;27468;47.460;19.034;2023-03-01T10:19:45;15.35;;;10.02;;
41799;SDS011;27468;47.460;19.034;2023-03-01T10:24:46;17.85;;;9.60;;
41799;SDS011;27468;47.460;19.034;2023-03-01T10:30:12;14.30;;;8.63;;
41799;SDS011;27468;47.460;19.034;2023-03-01T10:32:45;15.02;;;9.07;;
41799;SDS011;27468;47.460;19.034;2023-03-01T10:38:02;15.88;;;8.70;;
41799;SDS011;27468;47.460;19.034;2023-03-01T10:40:28;15.10;;;8.07;;
41799;SDS011;27468;47.460;19.034;2023-03-01T10:42:54;14.63;;;9.23;;
41799;SDS011;27468;47.460;19.034;2023-03-01T10:50:44;15.43;;;9.73;;
41799;SDS011;27468;47.460;19.034;2023-03-01T10:53:25;14.07;;;9.00;;
41799;SDS011;27468;47.460;19.034;2023-03-01T10:56:00;14.27;;;7.93;;
41799;SDS011;27468;47.460;19.034;2023-03-01T10:58:31;13.10;;;8.75;;
41799;SDS011;27468;47.460;19.034;2023-03-01T11:01:03;16.48;;;9.13;;
41799;SDS011;27468;47.460;19.034;2023-03-01T11:06:03;15.05;;;9.07;;
41799;SDS011;27468;47.460;19.034;2023-03-01T11:11:26;16.88;;;8.80;;
41799;SDS011;27468;47.460;19.034;2023-03-01T11:16:36;11.25;;;7.15;;
41799;SDS011;27468;47.460;19.034;2023-03-01T11:24:24;14.10;;;7.80;;
41799;SDS011;27468;47.460;19.034;2023-03-01T11:26:55;14.27;;;8.02;;
41799;SDS011;27468;47.460;19.034;2023-03-01T11:29:30;10.77;;;7.53;;
41799;SDS011;27468;47.460;19.034;2023-03-01T11:32:01;12.13;;;7.57;;
41799;SDS011;27468;47.460;19.034;2023-03-01T11:34:38;11.70;;;8.15;;
41799;SDS011;27468;47.460;19.034;2023-03-01T11:37:53;12.73;;;7.63;;
41799;SDS011;27468;47.460;19.034;2023-03-01T11:40:11;10.93;;;8.13;;
41799;SDS011;27468;47.460;19.034;2023-03-01T11:45:32;11.82;;;7.32;;
41799;SDS011;27468;47.460;19.034;2023-03-01T11:50:50;8.90;;;6.10;;
41799;SDS011;27468;47.460;19.034;2023-03-01T11:55:55;10.23;;;6.03;;
41799;SDS011;27468;47.460;19.034;2023-03-01T12:04:26;10.18;;;6.15;;
41799;SDS011;27468;47.460;19.034;2023-03-01T12:07:13;8.25;;;5.95;;
41799;SDS011;27468;47.460;19.034;2023-03-01T12:14:49;9.82;;;6.28;;
41799;SDS011;27468;47.460;19.034;2023-03-01T12:28:14;12.43;;;7.20;;
41799;SDS011;27468;47.460;19.034;2023-03-01T12:44:15;10.73;;;6.93;;
41799;SDS011;27468;47.460;19.034;2023-03-01T12:47:30;10.65;;;6.57;;
41799;SDS011;27468;47.460;19.034;2023-03-01T12:50:17;13.35;;;7.78;;
41799;SDS011;27468;47.460;19.034;2023-03-01T12:55:39;10.82;;;6.80;;
41799;SDS011;27468;47.460;19.034;2023-03-01T13:03:36;11.23;;;7.43;;
41799;SDS011;27468;47.460;19.034;2023-03-01T13:06:29;11.88;;;6.80;;
41799;SDS011;27468;47.460;19.034;2023-03-01T13:11:28;8.13;;;5.30;;
41799;SDS011;27468;47.460;19.034;2023-03-01T13:16:48;7.72;;;5.10;;
41799;SDS011;27468;47.460;19.034;2023-03-01T13:19:15;8.85;;;5.50;;
41799;SDS011;27468;47.460;19.034;2023-03-01T13:21:44;8.50;;;5.22;;
41799;SDS011;27468;47.460;19.034;2023-03-01T13:24:27;7.35;;;4.55;;
41799;SDS011;27468;47.460;19.034;2023-03-01T13:29:30;8.82;;;4.53;;
41799;SDS011;27468;47.460;19.034;2023-03-01T13:32:23;8.23;;;4.90;;
41799;SDS011;27468;47.460;19.034;2023-03-01T13:34:55;9.40;;;4.70;;
41799;SDS011;27468;47.460;19.034;2023-03-01T13:37:31;6.40;;;4.87;;
41799;SDS011;27468;47.460;19.034;2023-03-01T13:42:51;10.10;;;5.65;;
41799;SDS011;27468;47.460;19.034;2023-03-01T13:48:11;6.93;;;4.55;;
41799;SDS011;27468;47.460;19.034;2023-03-01T13:50:47;10.15;;;5.50;;
41799;SDS011;27468;47.460;19.034;2023-03-01T13:53:17;7.50;;;4.72;;
41799;SDS011;27468;47.460;19.034;2023-03-01T13:55:55;10.93;;;5.40;;
41799;SDS011;27468;47.460;19.034;2023-03-01T13:58:30;9.15;;;5.50;;
41799;SDS011;27468;47.460;19.034;2023-03-01T14:00:59;9.10;;;6.07;;
41799;SDS011;27468;47.460;19.034;2023-03-01T14:03:30;8.63;;;5.15;;
41799;SDS011;27468;47.460;19.034;2023-03-01T14:08:28;7.03;;;4.60;;
41799;SDS011;27468;47.460;19.034;2023-03-01T14:19:37;7.10;;;4.72;;
41799;SDS011;27468;47.460;19.034;2023-03-01T14:24:38;5.88;;;3.63;;
41799;SDS011;27468;47.460;19.034;2023-03-01T14:27:12;5.63;;;3.85;;
41799;SDS011;27468;47.460;19.034;2023-03-01T14:29:39;6.82;;;3.90;;
41799;SDS011;27468;47.460;19.034;2023-03-01T14:32:08;7.18;;;4.28;;
41799;SDS011;27468;47.460;19.034;2023-03-01T14:34:44;7.18;;;3.55;;
41799;SDS011;27468;47.460;19.034;2023-03-01T14:37:11;6.47;;;4.00;;
41799;SDS011;27468;47.460;19.034;2023-03-01T14:39:42;6.25;;;3.53;;
41799;SDS011;27468;47.460;19.034;2023-03-01T14:42:08;6.40;;;3.88;;
41799;SDS011;27468;47.460;19.034;2023-03-01T14:44:33;6.75;;;4.03;;
41799;SDS011;27468;47.460;19.034;2023-03-01T14:47:02;6.00;;;3.58;;
41799;SDS011;27468;47.460;19.034;2023-03-01T14:49:29;6.80;;;3.97;;
41799;SDS011;27468;47.460;19.034;2023-03-01T14:52:06;4.93;;;3.78;;
41799;SDS011;27468;47.460;19.034;2023-03-01T14:54:43;6.97;;;3.85;;
41799;SDS011;27468;47.460;19.034;2023-03-01T14:57:12;7.22;;;3.70;;
41799;SDS011;27468;47.460;19.034;2023-03-01T14:59:40;5.03;;;3.20;;
41799;SDS011;27468;47.460;19.034;2023-03-01T15:02:08;7.45;;;3.28;;
41799;SDS011;27468;47.460;19.034;2023-03-01T15:04:41;5.97;;;3.42;;
41799;SDS011;27468;47.460;19.034;2023-03-01T15:07:10;7.00;;;3.88;;
41799;SDS011;27468;47.460;19.034;2023-03-01T15:09:39;7.60;;;3.83;;
41799;SDS011;27468;47.460;19.034;2023-03-01T15:17:53;7.65;;;4.10;;
41799;SDS011;27468;47.460;19.034;2023-03-01T15:20:23;6.25;;;3.58;;
41799;SDS011;27468;47.460;19.034;2023-03-01T15:22:51;7.70;;;3.55;;
41799;SDS011;27468;47.460;19.034;2023-03-01T15:25:18;6.28;;;3.70;;
41799;SDS011;27468;47.460;19.034;2023-03-01T15:27:48;8.50;;;3.53;;
41799;SDS011;27468;47.460;19.034;2023-03-01T15:32:49;9.38;;;4.03;;
41799;SDS011;27468;47.460;19.034;2023-03-01T15:35:45;6.38;;;3.60;;
41799;SDS011;27468;47.460;19.034;2023-03-01T15:38:33;5.90;;;3.38;;
41799;SDS011;27468;47.460;19.034;2023-03-01T15:41:26;6.72;;;3.67;;
41799;SDS011;27468;47.460;19.034;2023-03-01T15:43:55;6.82;;;4.13;;
41799;SDS011;27468;47.460;19.034;2023-03-01T15:46:24;5.85;;;3.70;;
41799;SDS011;27468;47.460;19.034;2023-03-01T15:48:58;7.70;;;3.70;;
41799;SDS011;27468;47.460;19.034;2023-03-01T15:51:35;6.18;;;3.50;;
41799;SDS011;27468;47.460;19.034;2023-03-01T15:54:18;8.57;;;4.00;;
41799;SDS011;27468;47.460;19.034;2023-03-01T15:56:46;6.97;;;3.60;;
41799;SDS011;27468;47.460;19.034;2023-03-01T15:59:12;7.40;;;4.10;;
41799;SDS011;27468;47.460;19.034;2023-03-01T16:01:39;5.38;;;3.85;;
41799;SDS011;27468;47.460;19.034;2023-03-01T16:04:05;9.40;;;4.30;;
41799;SDS011;27468;47.460;19.034;2023-03-01T16:06:30;7.15;;;4.20;;
41799;SDS011;27468;47.460;19.034;2023-03-01T16:08:56;10.25;;;4.57;;
41799;SDS011;27468;47.460;19.034;2023-03-01T16:11:21;10.10;;;4.35;;
41799;SDS011;27468;47.460;19.034;2023-03-01T16:13:47;7.53;;;4.32;;
41799;SDS011;27468;47.460;19.034;2023-03-01T16:16:14;7.35;;;3.63;;
41799;SDS011;27468;47.460;19.034;2023-03-01T16:18:45;8.70;;;4.03;;
41799;SDS011;27468;47.460;19.034;2023-03-01T16:21:16;8.68;;;4.30;;
41799;SDS011;27468;47.460;19.034;2023-03-01T16:23:45;8.32;;;4.13;;
41799;SDS011;27468;47.460;19.034;2023-03-01T16:26:11;6.88;;;4.28;;
41799;SDS011;27468;47.460;19.034;2023-03-01T16:28:38;7.10;;;4.47;;
41799;SDS011;27468;47.460;19.034;2023-03-01T16:31:04;10.15;;;4.28;;
41799;SDS011;27468;47.460;19.034;2023-03-01T16:33:30;7.78;;;3.90;;
41799;SDS011;27468;47.460;19.034;2023-03-01T16:35:56;6.53;;;3.90;;
41799;SDS011;27468;47.460;19.034;2023-03-01T16:38:21;7.82;;;3.95;;
41799;SDS011;27468;47.460;19.034;2023-03-01T16:40:48;6.47;;;3.85;;
41799;SDS011;27468;47.460;19.034;2023-03-01T16:43:15;6.32;;;3.80;;
41799;SDS011;27468;47.460;19.034;2023-03-01T16:45:40;7.70;;;3.70;;
41799;SDS011;27468;47.460;19.034;2023-03-01T16:48:09;7.63;;;3.58;;
41799;SDS011;27468;47.460;19.034;2023-03-01T16:50:35;6.55;;;3.35;;
41799;SDS011;27468;47.460;19.034;2023-03-01T16:53:01;6.93;;;3.72;;